Terminal Aerodrome Forecast
Issued by NWS

Home | Current Version | Previous Version | Text Only | Print | Product List | Glossary On
Versions: 1 2 3 4 5 6 7 8 9 10 11 12 13 14 15 16 17 18
000
FTUS42 KILM 170500
TAFCRE
TAF
KCRE 170523Z 1706/1806 03006KT P6SM SCT035
     FM171400 05012G19KT P6SM FEW020 SCT040
     FM171900 05010G16KT P6SM SCT020 BKN040
     FM180200 04010KT P6SM BKN025=

USA.gov is the U.S. government's official web portal to all federal, state and local government web resources and services.